Ana Sayfa
METAR-TAF:

METAR-TAF

Havaalanları :

Granite Falls Municipal Airport (Lenzen-Roe Memorial Field)

Granite Falls, Minnesota, Amerika Birleşik Devletleri

Enlem: 44-45-11N, Boylam: 095-33-21W, yükseklik: 319 m

Güncel hava durumu gözlemi

Rapor saat 02:05 UTC de 38 dakika önce yapıldı.
Rüzgar güney/güneydoğudan 4 kt
Sıcaklık 30°C
Nem 79%
Basınç 1012 hPa
Görüş mesafesi: 16.1 km
Açık gökyüzü

METAR: KGDB 140205Z AUTO 15004KT 10SM CLR 30/26 A2987 RMK AO2 LTG DSNT NW

Saat: 21:43 (02:43 UTC)


TAF: eksik

4.000'den fazla havaalanı için hava durumu gözlemleri ve tahminleri (METAR ve TAF raporları).

Kullanılabilir istasyonlar harita üzerinde sarı ve kırmızı noktalarla gösterilir.

İstasyonun adını görmek için fareyi noktanın üzerinde gezdirin.

Sonrasında hava gözlem ve tahminlerini görmek için tıklayın.

Haritayı değiştirmek için: yaklaştırmak için siyah artı işaretli yeşil düğmeye ve uzaklaştırmak için de eksi işaretli düğmeye hızla tıklayın; bitişik haritalar için yeşil okları kullanın.


METAR-TAF: